createdAt,value
2017-07-22T00:01:28.668Z,101273.36
2017-07-22T00:03:57.010Z,101279.98
2017-07-22T00:06:25.969Z,101281.67
2017-07-22T00:08:54.329Z,101280.05
2017-07-22T00:11:23.446Z,101271.11
2017-07-22T00:13:52.174Z,101262.33
2017-07-22T00:16:20.570Z,101271.00
2017-07-22T00:18:48.936Z,101264.17
2017-07-22T00:21:17.684Z,101258.88
2017-07-22T00:23:46.055Z,101264.31
2017-07-22T00:26:14.419Z,101263.38
2017-07-22T00:28:43.340Z,101254.13
2017-07-22T00:31:11.704Z,101249.11
2017-07-22T00:33:40.115Z,101247.98
2017-07-22T00:36:09.169Z,101247.70
2017-07-22T00:38:37.535Z,101253.72
2017-07-22T00:41:06.695Z,101254.01
2017-07-22T00:43:35.344Z,101259.41
2017-07-22T00:46:03.683Z,101247.05
2017-07-22T00:48:32.055Z,101247.20
2017-07-22T00:51:00.672Z,101240.59
2017-07-22T00:53:29.011Z,101243.15
2017-07-22T00:55:57.346Z,101245.56
2017-07-22T00:58:26.121Z,101247.50
2017-07-22T01:00:54.479Z,101245.20
2017-07-22T01:03:23.590Z,101237.09
2017-07-22T01:05:52.431Z,101233.47
2017-07-22T01:08:20.887Z,101228.40
2017-07-22T01:10:49.239Z,101220.08
2017-07-22T01:13:18.053Z,101212.55
2017-07-22T01:15:46.854Z,101212.83
2017-07-22T01:18:15.207Z,101206.56
2017-07-22T01:20:44.108Z,101202.52
2017-07-22T01:23:12.496Z,101200.38
2017-07-22T01:25:40.880Z,101205.98
2017-07-22T01:28:09.653Z,101201.28
2017-07-22T01:30:37.981Z,101202.30
2017-07-22T01:33:06.372Z,101196.72
2017-07-22T01:35:35.775Z,101194.30
2017-07-22T01:38:04.153Z,101192.95
2017-07-22T01:40:32.485Z,101198.25
2017-07-22T01:43:01.459Z,101190.80
2017-07-22T01:45:29.803Z,101192.97
2017-07-22T01:47:58.163Z,101185.30
2017-07-22T01:50:26.915Z,101177.73
2017-07-22T01:52:55.282Z,101178.55
2017-07-22T01:55:23.626Z,101175.91
2017-07-22T01:57:52.359Z,101169.78
2017-07-22T02:00:20.732Z,101163.80
2017-07-22T02:02:49.084Z,101161.36
2017-07-22T02:05:18.056Z,101159.36
2017-07-22T02:07:46.413Z,101158.48
2017-07-22T02:10:14.767Z,101160.78
2017-07-22T02:12:43.650Z,101164.07
2017-07-22T02:15:12.022Z,101154.83
2017-07-22T02:17:41.147Z,101158.16
2017-07-22T02:20:09.804Z,101165.05
2017-07-22T02:22:38.156Z,101159.53
2017-07-22T02:25:06.542Z,101157.28
2017-07-22T02:27:35.560Z,101161.84
2017-07-22T02:30:03.936Z,101163.61
2017-07-22T02:32:32.281Z,101164.65
2017-07-22T02:35:00.898Z,101175.20
2017-07-22T02:37:29.269Z,101175.69
2017-07-22T02:39:57.621Z,101170.22
2017-07-22T02:42:26.469Z,101169.37
2017-07-22T02:44:54.820Z,101172.48
2017-07-22T02:47:23.156Z,101171.28
2017-07-22T02:49:51.903Z,101168.06
2017-07-22T02:52:20.251Z,101167.61
2017-07-22T02:54:48.590Z,101163.72
2017-07-22T02:57:17.291Z,101163.42
2017-07-22T02:59:46.468Z,101163.02
2017-07-22T03:02:14.812Z,101163.96
2017-07-22T03:04:43.455Z,101166.38
2017-07-22T03:07:11.801Z,101167.30
2017-07-22T03:09:40.156Z,101163.02
2017-07-22T03:12:09.268Z,101165.96
2017-07-22T03:14:37.632Z,101172.53
2017-07-22T03:17:05.976Z,101169.09
2017-07-22T03:19:34.609Z,101163.52
2017-07-22T03:22:02.964Z,101171.20
2017-07-22T03:24:31.315Z,101174.87
2017-07-22T03:27:00.155Z,101170.00
2017-07-22T03:29:28.529Z,101167.76
2017-07-22T03:31:56.898Z,101169.58
2017-07-22T03:34:25.990Z,101167.36
2017-07-22T03:36:54.361Z,101173.18
2017-07-22T03:39:23.522Z,101174.31
2017-07-22T03:41:52.165Z,101170.95
2017-07-22T03:44:20.521Z,101170.05
2017-07-22T03:46:48.892Z,101172.69
2017-07-22T03:49:17.536Z,101162.52
2017-07-22T03:51:45.892Z,101160.83
2017-07-22T03:54:14.236Z,101167.60
2017-07-22T03:56:43.161Z,101150.77
2017-07-22T03:59:11.500Z,101157.17
2017-07-22T04:01:39.839Z,101156.08
2017-07-22T04:04:08.499Z,101157.88
2017-07-22T04:06:36.838Z,101159.31
2017-07-22T04:09:05.203Z,101150.39
2017-07-22T04:11:33.822Z,101155.66
2017-07-22T04:14:02.196Z,101157.42
2017-07-22T04:16:30.585Z,101160.94
2017-07-22T04:18:59.682Z,101153.14
2017-07-22T04:21:28.022Z,101152.63
2017-07-22T04:23:56.366Z,101152.50
2017-07-22T04:26:25.206Z,101153.97
2017-07-22T04:28:53.566Z,101155.81
2017-07-22T04:31:21.953Z,101162.72
2017-07-22T04:33:50.594Z,101163.73
2017-07-22T04:36:18.953Z,101162.47
2017-07-22T04:38:48.131Z,101159.27
2017-07-22T04:41:17.067Z,101155.92
2017-07-22T04:43:45.411Z,101149.46
2017-07-22T04:46:13.765Z,101143.90
2017-07-22T04:48:42.423Z,101145.29
2017-07-22T04:51:10.788Z,101145.17
2017-07-22T04:53:39.135Z,101146.66
2017-07-22T04:56:08.775Z,101143.46
2017-07-22T04:58:37.122Z,101149.39
2017-07-22T05:01:06.279Z,101144.22
2017-07-22T05:03:36.043Z,101155.16
2017-07-22T05:06:04.379Z,101138.05
2017-07-22T05:08:32.719Z,101152.55
2017-07-22T05:11:01.615Z,101158.83
2017-07-22T05:13:30.006Z,101155.41
2017-07-22T05:15:58.740Z,101159.95
2017-07-22T05:18:27.353Z,101151.87
2017-07-22T05:20:55.767Z,101160.46
2017-07-22T05:23:24.112Z,101167.04
2017-07-22T05:25:53.263Z,101164.12
2017-07-22T05:28:21.604Z,101176.89
2017-07-22T05:30:49.989Z,101166.61
2017-07-22T05:33:18.880Z,101169.94
2017-07-22T05:35:47.238Z,101169.95
2017-07-22T05:38:15.614Z,101186.63
2017-07-22T05:40:44.248Z,101180.30
2017-07-22T05:43:12.633Z,101178.57
2017-07-22T05:45:41.039Z,101185.08
2017-07-22T05:48:10.208Z,101187.14
2017-07-22T05:50:38.561Z,101188.60
2017-07-22T05:53:06.908Z,101185.50
2017-07-22T05:55:35.606Z,101198.67
2017-07-22T05:58:04.011Z,101193.80
2017-07-22T06:00:32.374Z,101195.91
2017-07-22T06:03:01.096Z,101196.67
2017-07-22T06:05:29.455Z,101194.39
2017-07-22T06:07:57.818Z,101186.59
2017-07-22T06:10:26.550Z,101184.94
2017-07-22T06:12:54.918Z,101180.55
2017-07-22T06:15:23.292Z,101180.55
2017-07-22T06:17:52.159Z,101187.36
2017-07-22T06:20:20.519Z,101194.14
2017-07-22T06:22:49.623Z,101192.98
2017-07-22T06:25:18.271Z,101200.97
2017-07-22T06:27:46.627Z,101199.76
2017-07-22T06:30:14.997Z,101208.06
2017-07-22T06:32:43.684Z,101202.70
2017-07-22T06:35:12.042Z,101204.41
2017-07-22T06:37:40.393Z,101211.31
2017-07-22T06:40:09.323Z,101212.51
2017-07-22T06:42:37.666Z,101206.86
2017-07-22T06:45:06.789Z,101202.83
2017-07-22T06:47:35.461Z,101214.90
2017-07-22T06:50:03.855Z,101210.58
2017-07-22T06:52:32.211Z,101204.55
2017-07-22T06:55:00.987Z,101206.55
2017-07-22T06:57:29.417Z,101203.33
2017-07-22T06:59:57.779Z,101199.06
2017-07-22T07:02:27.602Z,101205.29
2017-07-22T07:04:55.969Z,101210.34
2017-07-22T07:07:24.358Z,101210.66
2017-07-22T07:09:53.019Z,101199.98
2017-07-22T07:12:21.364Z,101203.34
2017-07-22T07:14:49.726Z,101202.61
2017-07-22T07:17:18.445Z,101206.78
2017-07-22T07:19:46.782Z,101203.18
2017-07-22T07:22:15.122Z,101197.47
2017-07-22T07:24:43.815Z,101196.73
2017-07-22T07:27:12.181Z,101202.58
2017-07-22T07:29:41.317Z,101209.58
2017-07-22T07:32:10.076Z,101210.88
2017-07-22T07:34:38.416Z,101209.69
2017-07-22T07:37:06.756Z,101218.09
2017-07-22T07:39:35.725Z,101216.37
2017-07-22T07:42:04.095Z,101214.23
2017-07-22T07:44:33.207Z,101217.71
2017-07-22T07:47:01.912Z,101220.52
2017-07-22T07:49:30.250Z,101220.82
2017-07-22T07:51:58.595Z,101209.55
2017-07-22T07:54:27.281Z,101204.25
2017-07-22T07:56:55.651Z,101204.72
2017-07-22T07:59:24.017Z,101206.08
2017-07-22T08:01:52.849Z,101207.20
2017-07-22T08:04:21.217Z,101203.80
2017-07-22T08:06:49.580Z,101203.58
2017-07-22T08:09:18.342Z,101202.47
2017-07-22T08:11:46.704Z,101202.17
2017-07-22T08:14:15.103Z,101205.75
2017-07-22T08:16:44.381Z,101214.41
2017-07-22T08:19:12.779Z,101214.20
2017-07-22T08:21:41.913Z,101223.31
2017-07-22T08:24:11.736Z,101229.05
2017-07-22T08:26:40.091Z,101225.11
2017-07-22T08:29:08.440Z,101235.16
2017-07-22T08:31:37.357Z,101242.39
2017-07-22T08:34:05.705Z,101244.08
2017-07-22T08:36:34.812Z,101241.86
2017-07-22T08:39:03.593Z,101250.73
2017-07-22T08:41:31.940Z,101250.89
2017-07-22T08:44:00.278Z,101251.77
2017-07-22T08:46:29.273Z,101252.88
2017-07-22T08:48:57.667Z,101253.84
2017-07-22T08:51:26.036Z,101263.28
2017-07-22T08:53:54.815Z,101268.34
2017-07-22T08:56:23.183Z,101270.22
2017-07-22T08:58:51.586Z,101263.11
2017-07-22T09:01:20.197Z,101256.86
2017-07-22T09:03:48.544Z,101261.72
2017-07-22T09:06:16.891Z,101269.54
2017-07-22T09:08:45.998Z,101264.07
2017-07-22T09:11:14.366Z,101262.98
2017-07-22T09:13:42.731Z,101269.25
2017-07-22T09:16:11.406Z,101280.63
2017-07-22T09:18:40.210Z,101286.75
2017-07-22T09:21:09.331Z,101294.79
2017-07-22T09:23:38.065Z,101292.20
2017-07-22T09:26:06.422Z,101301.69
2017-07-22T09:28:34.779Z,101295.98
2017-07-22T09:31:03.510Z,101294.83
2017-07-22T09:33:31.877Z,101298.23
2017-07-22T09:36:00.244Z,101293.53
2017-07-22T09:38:29.005Z,101296.66
2017-07-22T09:40:57.351Z,101298.36
2017-07-22T09:43:25.711Z,101304.22
2017-07-22T09:45:54.461Z,101305.63
2017-07-22T09:48:22.847Z,101306.55
2017-07-22T09:50:51.218Z,101317.24
2017-07-22T09:53:19.974Z,101315.41
2017-07-22T09:55:48.350Z,101327.35
2017-07-22T09:58:16.739Z,101313.45
2017-07-22T10:00:45.351Z,101309.52
2017-07-22T10:03:13.714Z,101307.58
2017-07-22T10:05:42.090Z,101309.52
2017-07-22T10:08:10.729Z,101313.06
2017-07-22T10:10:39.100Z,101313.72
2017-07-22T10:13:07.467Z,101316.14
2017-07-22T10:15:36.430Z,101314.88
2017-07-22T10:18:04.769Z,101317.81
2017-07-22T10:20:33.324Z,101316.85
2017-07-22T10:23:02.210Z,101309.58
2017-07-22T10:25:30.576Z,101317.22
2017-07-22T10:27:58.938Z,101323.64
2017-07-22T10:30:27.936Z,101309.41
2017-07-22T10:32:56.308Z,101302.19
2017-07-22T10:35:24.726Z,101304.41
2017-07-22T10:37:53.636Z,101294.91
2017-07-22T10:40:22.002Z,101277.84
2017-07-22T10:42:50.377Z,101270.27
2017-07-22T10:45:19.163Z,101278.01
2017-07-22T10:47:47.574Z,101273.16
2017-07-22T10:50:15.997Z,101264.80
2017-07-22T10:52:44.708Z,101252.16
2017-07-22T10:55:13.044Z,101248.13
2017-07-22T10:57:42.195Z,101243.13
2017-07-22T11:00:10.888Z,101248.59
2017-07-22T11:02:39.256Z,101237.34
2017-07-22T11:05:07.600Z,101235.37
2017-07-22T11:07:36.394Z,101221.41
2017-07-22T11:10:04.763Z,101213.58
2017-07-22T11:12:33.900Z,101208.49
2017-07-22T11:15:02.532Z,101200.51
2017-07-22T11:17:30.932Z,101198.56
2017-07-22T11:19:59.311Z,101193.41
2017-07-22T11:22:28.732Z,101196.47
2017-07-22T11:24:57.074Z,101197.20
2017-07-22T11:27:26.190Z,101196.23
2017-07-22T11:29:54.990Z,101201.84
2017-07-22T11:32:23.345Z,101193.69
2017-07-22T11:34:51.720Z,101192.52
2017-07-22T11:37:20.667Z,101198.41
2017-07-22T11:39:49.056Z,101201.05
2017-07-22T11:42:17.432Z,101199.01
2017-07-22T11:44:46.510Z,101197.74
2017-07-22T11:47:14.948Z,101205.67
2017-07-22T11:49:43.319Z,101208.09
2017-07-22T11:52:11.984Z,101202.92
2017-07-22T11:54:40.366Z,101215.88
2017-07-22T11:57:08.770Z,101214.62
2017-07-22T11:59:37.449Z,101221.24
2017-07-22T12:02:05.826Z,101223.63
2017-07-22T12:04:34.222Z,101223.23
2017-07-22T12:07:04.033Z,101217.86
2017-07-22T12:09:32.390Z,101224.08
2017-07-22T12:12:00.800Z,101221.11
2017-07-22T12:14:29.651Z,101224.09
2017-07-22T12:16:58.043Z,101226.33
2017-07-22T12:19:26.425Z,101222.20
2017-07-22T12:21:55.583Z,101224.55
2017-07-22T12:24:24.010Z,101232.23
2017-07-22T12:26:52.378Z,101225.00
2017-07-22T12:29:22.046Z,101228.25
2017-07-22T12:31:50.439Z,101224.84
2017-07-22T12:34:18.789Z,101224.97
2017-07-22T12:36:47.558Z,101225.94
2017-07-22T12:39:16.723Z,101225.41
2017-07-22T12:41:45.079Z,101230.27
2017-07-22T12:44:13.755Z,101220.89
2017-07-22T12:46:42.094Z,101221.18
2017-07-22T12:49:10.473Z,101217.38
2017-07-22T12:51:39.823Z,101212.33
2017-07-22T12:54:08.171Z,101217.86
2017-07-22T12:56:36.527Z,101223.42
2017-07-22T12:59:05.442Z,101227.69
2017-07-22T13:01:33.799Z,101232.36
2017-07-22T13:04:02.140Z,101230.94
2017-07-22T13:06:30.790Z,101233.08
2017-07-22T13:08:59.148Z,101231.86
2017-07-22T13:11:27.525Z,101225.67
2017-07-22T13:13:57.035Z,101225.98
2017-07-22T13:16:25.462Z,101236.98
2017-07-22T13:18:53.856Z,101239.34
2017-07-22T13:21:22.638Z,101240.41
2017-07-22T13:23:51.135Z,101241.41
2017-07-22T13:26:19.536Z,101243.91
2017-07-22T13:28:48.279Z,101245.38
2017-07-22T13:31:16.646Z,101234.89
2017-07-22T13:33:45.036Z,101230.66
2017-07-22T13:36:13.890Z,101226.48
2017-07-22T13:38:42.294Z,101227.95
2017-07-22T13:41:10.676Z,101231.44
2017-07-22T13:43:39.328Z,101220.86
2017-07-22T13:46:07.723Z,101227.88
2017-07-22T13:48:36.110Z,101226.88
2017-07-22T13:51:04.824Z,101234.66
2017-07-22T13:53:33.205Z,101235.84
2017-07-22T13:56:01.623Z,101238.03
2017-07-22T13:58:30.625Z,101236.69
2017-07-22T14:00:59.029Z,101226.87
2017-07-22T14:03:27.404Z,101223.02
2017-07-22T14:05:56.200Z,101220.11
2017-07-22T14:08:24.564Z,101217.63
2017-07-22T14:10:52.938Z,101218.99
2017-07-22T14:13:22.400Z,101219.59
2017-07-22T14:15:50.763Z,101212.22
2017-07-22T14:18:19.103Z,101214.79
2017-07-22T14:20:48.013Z,101204.44
2017-07-22T14:23:16.418Z,101196.51
2017-07-22T14:25:44.912Z,101189.12
2017-07-22T14:28:13.547Z,101191.07
2017-07-22T14:30:41.910Z,101181.35
2017-07-22T14:33:10.272Z,101186.31
2017-07-22T14:35:39.118Z,101179.55
2017-07-22T14:38:07.496Z,101185.47
2017-07-22T14:40:35.852Z,101186.66
2017-07-22T14:43:04.918Z,101184.88
2017-07-22T14:45:33.300Z,101188.17
2017-07-22T14:48:01.678Z,101189.81
2017-07-22T14:50:30.607Z,101191.28
2017-07-22T14:52:59.000Z,101201.41
2017-07-22T14:55:27.372Z,101199.31
2017-07-22T14:57:56.295Z,101199.37
2017-07-22T15:00:24.707Z,101205.00
2017-07-22T15:02:53.086Z,101204.36
2017-07-22T15:05:22.258Z,101204.11
2017-07-22T15:07:50.645Z,101210.97
2017-07-22T15:10:19.040Z,101209.43
2017-07-22T15:12:47.974Z,101209.30
2017-07-22T15:15:16.357Z,101213.11
2017-07-22T15:17:44.736Z,101208.60
2017-07-22T15:20:13.431Z,101214.19
2017-07-22T15:22:41.799Z,101211.27
2017-07-22T15:25:10.241Z,101201.84
2017-07-22T15:27:40.124Z,101208.50
2017-07-22T15:30:08.542Z,101210.77
2017-07-22T15:32:36.927Z,101202.70
2017-07-22T15:35:06.408Z,101197.58
2017-07-22T15:37:34.793Z,101198.45
2017-07-22T15:40:03.190Z,101198.12
2017-07-22T15:42:32.034Z,101196.18
2017-07-22T15:45:00.410Z,101205.79
2017-07-22T15:47:28.811Z,101198.91
2017-07-22T15:49:57.873Z,101201.78
2017-07-22T15:52:26.306Z,101199.63
2017-07-22T15:54:54.678Z,101197.66
2017-07-22T15:57:24.384Z,101191.40
2017-07-22T15:59:52.731Z,101184.47
2017-07-22T16:02:21.069Z,101188.94
2017-07-22T16:04:49.746Z,101193.59
2017-07-22T16:07:18.128Z,101191.60
2017-07-22T16:09:46.477Z,101200.18
2017-07-22T16:12:15.446Z,101187.74
2017-07-22T16:14:43.805Z,101190.23
2017-07-22T16:17:12.158Z,101195.82
2017-07-22T16:19:40.893Z,101191.85
2017-07-22T16:22:09.251Z,101189.87
2017-07-22T16:24:37.621Z,101193.63
2017-07-22T16:27:06.392Z,101192.75
2017-07-22T16:29:35.532Z,101197.75
2017-07-22T16:32:03.934Z,101193.88
2017-07-22T16:34:32.792Z,101189.75
2017-07-22T16:37:01.156Z,101198.33
2017-07-22T16:39:29.579Z,101197.02
2017-07-22T16:41:58.423Z,101196.92
2017-07-22T16:44:26.823Z,101201.63
2017-07-22T16:46:55.186Z,101200.08
2017-07-22T16:49:23.856Z,101189.83
2017-07-22T16:51:52.226Z,101179.33
2017-07-22T16:54:20.595Z,101173.73
2017-07-22T16:56:49.729Z,101175.19
2017-07-22T16:59:18.084Z,101183.91
2017-07-22T17:01:47.265Z,101182.05
2017-07-22T17:04:16.082Z,101182.08
2017-07-22T17:06:45.203Z,101184.12
2017-07-22T17:09:13.559Z,101174.23
2017-07-22T17:11:42.233Z,101163.42
2017-07-22T17:14:10.608Z,101166.45
2017-07-22T17:16:39.753Z,101168.28
2017-07-22T17:19:08.787Z,101163.70
2017-07-22T17:21:37.146Z,101166.98
2017-07-22T17:24:05.525Z,101167.64
2017-07-22T17:26:34.407Z,101164.43
2017-07-22T17:29:02.757Z,101160.14
2017-07-22T17:31:31.112Z,101166.77
2017-07-22T17:34:00.025Z,101170.45
2017-07-22T17:36:28.385Z,101166.78
2017-07-22T17:38:57.521Z,101172.56
2017-07-22T17:41:26.307Z,101175.64
2017-07-22T17:43:54.716Z,101175.19
2017-07-22T17:46:23.110Z,101184.09
2017-07-22T17:48:51.852Z,101188.23
2017-07-22T17:51:20.232Z,101189.44
2017-07-22T17:53:48.610Z,101184.81
2017-07-22T17:56:17.394Z,101182.25
2017-07-22T17:58:45.755Z,101172.98
2017-07-22T18:01:14.897Z,101173.22
2017-07-22T18:03:43.755Z,101168.57
2017-07-22T18:06:12.127Z,101174.40
2017-07-22T18:08:40.505Z,101174.37
2017-07-22T18:11:09.765Z,101180.50
2017-07-22T18:13:38.159Z,101184.53
2017-07-22T18:16:06.559Z,101180.69
2017-07-22T18:18:35.240Z,101181.65
2017-07-22T18:21:04.394Z,101184.96
2017-07-22T18:23:32.778Z,101177.19
2017-07-22T18:26:01.838Z,101180.55
2017-07-22T18:28:30.206Z,101175.91
2017-07-22T18:30:59.365Z,101167.99
2017-07-22T18:33:28.114Z,101167.41
2017-07-22T18:35:56.474Z,101167.41
2017-07-22T18:38:24.822Z,101156.84
2017-07-22T18:40:53.488Z,101151.86
2017-07-22T18:43:21.847Z,101154.98
2017-07-22T18:45:50.212Z,101159.50
2017-07-22T18:48:18.982Z,101161.60
2017-07-22T18:50:47.363Z,101163.05
2017-07-22T18:53:15.732Z,101167.00
2017-07-22T18:55:44.357Z,101150.70
2017-07-22T18:58:12.727Z,101148.59
2017-07-22T19:00:41.081Z,101144.73
2017-07-22T19:03:09.885Z,101147.38
2017-07-22T19:05:38.275Z,101157.89
2017-07-22T19:08:06.625Z,101158.02
2017-07-22T19:10:35.770Z,101162.77
2017-07-22T19:13:04.156Z,101155.84
2017-07-22T19:15:32.956Z,101157.06
2017-07-22T19:18:01.808Z,101154.08
2017-07-22T19:20:30.200Z,101162.59
2017-07-22T19:22:58.550Z,101167.17
2017-07-22T19:25:27.454Z,101170.03
2017-07-22T19:27:55.812Z,101169.36
2017-07-22T19:30:24.960Z,101165.09
2017-07-22T19:32:53.999Z,101170.43
2017-07-22T19:35:23.119Z,101179.11
2017-07-22T19:37:51.475Z,101174.38
2017-07-22T19:40:20.108Z,101174.99
2017-07-22T19:42:48.488Z,101170.56
2017-07-22T19:45:16.911Z,101174.39
2017-07-22T19:47:45.648Z,101180.42
2017-07-22T19:50:14.015Z,101175.84
2017-07-22T19:52:42.429Z,101167.70
2017-07-22T19:55:11.691Z,101162.53
2017-07-22T19:57:40.055Z,101152.69
2017-07-22T20:00:09.195Z,101141.75
2017-07-22T20:02:37.966Z,101139.41
2017-07-22T20:05:06.344Z,101148.33
2017-07-22T20:07:34.724Z,101140.28
2017-07-22T20:10:03.603Z,101133.63
2017-07-22T20:12:31.969Z,101128.44
2017-07-22T20:15:01.077Z,101132.16
2017-07-22T20:17:29.932Z,101126.22
2017-07-22T20:19:59.086Z,101129.47
2017-07-22T20:22:27.507Z,101133.41
2017-07-22T20:24:56.158Z,101134.83
2017-07-22T20:27:25.036Z,101130.53
2017-07-22T20:29:53.409Z,101129.45
2017-07-22T20:32:22.392Z,101127.16
2017-07-22T20:34:50.734Z,101123.02
2017-07-22T20:37:19.117Z,101121.25
2017-07-22T20:39:48.070Z,101117.98
2017-07-22T20:42:16.409Z,101114.73
2017-07-22T20:44:44.789Z,101119.75
2017-07-22T20:47:13.437Z,101123.25
2017-07-22T20:49:41.822Z,101122.56
2017-07-22T20:52:10.195Z,101120.84
2017-07-22T20:54:39.087Z,101116.61
2017-07-22T20:57:07.464Z,101123.94
2017-07-22T20:59:35.844Z,101126.38
2017-07-22T21:02:04.748Z,101124.89
2017-07-22T21:04:33.113Z,101116.39
2017-07-22T21:07:01.453Z,101118.84
2017-07-22T21:09:30.245Z,101126.04
2017-07-22T21:11:58.615Z,101133.09
2017-07-22T21:14:26.984Z,101130.24
2017-07-22T21:16:55.689Z,101140.30
2017-07-22T21:19:24.098Z,101136.62
2017-07-22T21:21:52.478Z,101128.96
2017-07-22T21:24:21.751Z,101126.43
2017-07-22T21:26:50.107Z,101131.13
2017-07-22T21:29:18.617Z,101133.59
2017-07-22T21:31:47.325Z,101129.64
2017-07-22T21:34:15.682Z,101136.75
2017-07-22T21:36:44.024Z,101148.51
2017-07-22T21:39:13.507Z,101146.69
2017-07-22T21:41:41.882Z,101149.14
2017-07-22T21:44:10.260Z,101150.56
2017-07-22T21:46:39.281Z,101144.97
2017-07-22T21:49:07.660Z,101138.87
2017-07-22T21:51:36.028Z,101126.50
2017-07-22T21:54:04.732Z,101127.80
2017-07-22T21:56:33.136Z,101119.75
2017-07-22T21:59:01.590Z,101119.59
2017-07-22T22:01:30.309Z,101113.89
2017-07-22T22:03:58.720Z,101111.78
2017-07-22T22:06:27.102Z,101124.23
2017-07-22T22:08:55.907Z,101113.72
2017-07-22T22:11:24.285Z,101118.30
2017-07-22T22:13:52.675Z,101116.70
2017-07-22T22:16:21.500Z,101120.66
2017-07-22T22:18:49.857Z,101117.61
2017-07-22T22:21:18.254Z,101118.41
2017-07-22T22:23:46.871Z,101118.33
2017-07-22T22:26:15.230Z,101122.19
2017-07-22T22:28:43.636Z,101116.41
2017-07-22T22:31:12.826Z,101110.06
2017-07-22T22:33:41.204Z,101113.84
2017-07-22T22:36:09.578Z,101118.86
2017-07-22T22:38:38.281Z,101135.17
2017-07-22T22:41:06.700Z,101124.28
2017-07-22T22:43:35.090Z,101120.69
2017-07-22T22:46:03.994Z,101122.04
2017-07-22T22:48:32.349Z,101113.52
2017-07-22T22:51:00.778Z,101108.14
2017-07-22T22:53:29.537Z,101109.83
2017-07-22T22:55:57.919Z,101102.75
2017-07-22T22:58:26.297Z,101101.73
2017-07-22T23:00:55.240Z,101109.62
2017-07-22T23:03:23.602Z,101109.09
2017-07-22T23:05:51.951Z,101107.14
2017-07-22T23:08:20.631Z,101103.73
2017-07-22T23:10:49.000Z,101100.63
2017-07-22T23:13:17.332Z,101094.69
2017-07-22T23:15:46.064Z,101084.55
2017-07-22T23:18:14.425Z,101075.78
2017-07-22T23:20:43.578Z,101070.67
2017-07-22T23:23:12.337Z,101076.33
2017-07-22T23:25:40.716Z,101078.91
2017-07-22T23:28:09.094Z,101079.95
2017-07-22T23:30:37.769Z,101073.21
2017-07-22T23:33:06.153Z,101064.59
2017-07-22T23:35:35.278Z,101064.05
2017-07-22T23:38:04.066Z,101071.63
2017-07-22T23:40:32.458Z,101071.39
2017-07-22T23:43:00.842Z,101065.98
2017-07-22T23:45:29.529Z,101072.56
2017-07-22T23:47:57.899Z,101065.19
2017-07-22T23:50:26.243Z,101065.80
2017-07-22T23:52:54.972Z,101065.02
2017-07-22T23:55:23.343Z,101062.50
2017-07-22T23:57:51.717Z,101062.59
